createdAt,value
2018-10-06T00:01:42.205Z,99.97
2018-10-06T00:04:13.463Z,90.17
2018-10-06T00:06:43.604Z,85.83
2018-10-06T00:09:13.678Z,83.37
2018-10-06T00:11:43.722Z,83.90
2018-10-06T00:14:13.944Z,85.23
2018-10-06T00:16:44.876Z,85.87
2018-10-06T00:19:14.938Z,93.60
2018-10-06T00:21:45.376Z,86.93
2018-10-06T00:24:15.686Z,88.00
2018-10-06T00:26:46.028Z,88.83
2018-10-06T00:29:16.305Z,89.13
2018-10-06T00:31:46.931Z,86.37
2018-10-06T00:34:18.831Z,89.17
2018-10-06T00:36:50.630Z,85.97
2018-10-06T00:39:21.757Z,83.57
2018-10-06T00:41:54.043Z,85.80
2018-10-06T00:44:24.479Z,81.23
2018-10-06T00:46:55.012Z,85.47
2018-10-06T00:49:26.259Z,84.30
2018-10-06T00:51:56.855Z,82.20
2018-10-06T00:54:27.754Z,79.13
2018-10-06T00:56:58.713Z,78.17
2018-10-06T00:59:28.848Z,78.97
2018-10-06T01:02:00.161Z,75.47
2018-10-06T01:04:30.628Z,80.23
2018-10-06T01:07:00.746Z,72.17
2018-10-06T01:09:31.049Z,70.00
2018-10-06T01:12:02.811Z,69.27
2018-10-06T01:14:33.329Z,72.13
2018-10-06T01:17:03.964Z,73.83
2018-10-06T01:19:35.779Z,68.90
2018-10-06T01:22:06.536Z,68.30
2018-10-06T01:24:39.244Z,66.37
2018-10-06T01:27:09.626Z,69.50
2018-10-06T01:29:39.760Z,65.10
2018-10-06T01:32:13.261Z,64.20
2018-10-06T01:34:43.902Z,60.40
2018-10-06T01:37:14.350Z,60.57
2018-10-06T01:39:44.540Z,60.97
2018-10-06T01:42:15.784Z,62.17
2018-10-06T01:44:45.784Z,60.10
2018-10-06T01:47:16.152Z,59.87
2018-10-06T01:49:46.715Z,60.23
2018-10-06T01:52:19.803Z,60.97
2018-10-06T01:54:50.750Z,56.97
2018-10-06T01:57:20.750Z,56.07
2018-10-06T01:59:51.132Z,55.07
2018-10-06T02:02:21.161Z,58.47
2018-10-06T02:04:51.358Z,58.97
2018-10-06T02:07:22.183Z,58.83
2018-10-06T02:09:52.434Z,56.13
2018-10-06T02:12:23.605Z,54.97
2018-10-06T02:14:53.900Z,53.83
2018-10-06T02:17:24.137Z,53.67
2018-10-06T02:19:56.279Z,53.47
2018-10-06T02:22:26.633Z,52.43
2018-10-06T02:24:57.359Z,53.47
2018-10-06T02:27:27.586Z,53.23
2018-10-06T02:29:58.139Z,53.70
2018-10-06T02:32:28.969Z,53.27
2018-10-06T02:35:00.952Z,55.23
2018-10-06T02:37:31.203Z,53.50
2018-10-06T02:40:01.401Z,53.13
2018-10-06T02:42:31.829Z,53.87
2018-10-06T02:45:02.160Z,53.47
2018-10-06T02:47:32.090Z,54.93
2018-10-06T02:50:02.081Z,52.07
2018-10-06T02:52:32.200Z,52.43
2018-10-06T02:55:02.480Z,52.23
2018-10-06T02:57:32.594Z,53.13
2018-10-06T03:00:02.718Z,53.60
2018-10-06T03:02:33.045Z,53.33
2018-10-06T03:05:03.420Z,53.80
2018-10-06T03:07:33.686Z,54.10
2018-10-06T03:10:04.173Z,52.87
2018-10-06T03:12:34.376Z,52.63
2018-10-06T03:15:04.803Z,54.13
2018-10-06T03:17:34.767Z,54.93
2018-10-06T03:20:05.125Z,51.97
2018-10-06T03:22:35.635Z,52.20
2018-10-06T03:25:06.458Z,54.00
2018-10-06T03:27:36.692Z,52.60
2018-10-06T03:30:08.767Z,53.30
2018-10-06T03:32:39.189Z,51.40
2018-10-06T03:35:09.939Z,51.70
2018-10-06T03:37:40.460Z,50.27
2018-10-06T03:40:10.746Z,50.07
2018-10-06T03:42:40.928Z,52.27
2018-10-06T03:45:11.449Z,51.17
2018-10-06T03:47:41.696Z,49.50
2018-10-06T03:50:11.785Z,49.63
2018-10-06T03:52:43.487Z,49.63
2018-10-06T03:55:13.903Z,49.73
2018-10-06T03:57:43.973Z,51.07
2018-10-06T04:00:14.339Z,49.20
2018-10-06T04:02:47.365Z,50.47
2018-10-06T04:05:17.798Z,50.60
2018-10-06T04:07:48.728Z,51.97
2018-10-06T04:10:18.604Z,52.50
2018-10-06T04:12:50.067Z,52.07
2018-10-06T04:15:19.949Z,49.67
2018-10-06T04:17:50.374Z,50.57
2018-10-06T04:20:20.426Z,50.20
2018-10-06T04:22:51.467Z,50.73
2018-10-06T04:25:21.921Z,50.13
2018-10-06T04:27:52.267Z,50.87
2018-10-06T04:30:22.235Z,49.97
2018-10-06T04:32:52.493Z,51.23
2018-10-06T04:35:22.476Z,49.17
2018-10-06T04:37:52.477Z,50.53
2018-10-06T04:40:22.823Z,50.27
2018-10-06T04:42:52.860Z,47.97
2018-10-06T04:45:22.985Z,49.10
2018-10-06T04:47:53.270Z,50.30
2018-10-06T04:50:23.551Z,50.73
2018-10-06T04:52:53.797Z,51.00
2018-10-06T04:55:24.852Z,51.07
2018-10-06T04:57:55.251Z,49.57
2018-10-06T05:00:25.452Z,54.30
2018-10-06T05:02:55.479Z,52.33
2018-10-06T05:05:25.477Z,52.23
2018-10-06T05:07:56.049Z,51.77
2018-10-06T05:10:26.410Z,53.10
2018-10-06T05:12:56.448Z,50.93
2018-10-06T05:15:26.544Z,50.83
2018-10-06T05:17:56.575Z,53.27
2018-10-06T05:20:26.656Z,54.80
2018-10-06T05:22:56.733Z,52.87
2018-10-06T05:25:27.334Z,51.97
2018-10-06T05:27:57.475Z,51.93
2018-10-06T05:30:27.666Z,53.70
2018-10-06T05:32:57.933Z,50.53
2018-10-06T05:35:27.995Z,53.13
2018-10-06T05:37:59.011Z,53.13
2018-10-06T05:40:29.214Z,50.10
2018-10-06T05:42:59.307Z,52.57
2018-10-06T05:45:29.835Z,50.73
2018-10-06T05:48:00.486Z,53.10
2018-10-06T05:50:31.476Z,51.60
2018-10-06T05:53:01.763Z,52.03
2018-10-06T05:55:31.726Z,52.60
2018-10-06T05:58:02.171Z,52.63
2018-10-06T06:00:32.370Z,55.20
2018-10-06T06:03:02.454Z,53.33
2018-10-06T06:05:32.529Z,51.83
2018-10-06T06:08:02.448Z,53.40
2018-10-06T06:10:32.971Z,53.80
2018-10-06T06:13:03.085Z,52.17
2018-10-06T06:15:33.293Z,54.10
2018-10-06T06:18:03.358Z,55.63
2018-10-06T06:20:33.459Z,53.23
2018-10-06T06:23:03.539Z,53.53
2018-10-06T06:25:34.454Z,52.00
2018-10-06T06:28:05.690Z,51.13
2018-10-06T06:30:35.651Z,54.67
2018-10-06T06:33:05.790Z,51.87
2018-10-06T06:35:36.558Z,52.60
2018-10-06T06:38:07.780Z,51.80
2018-10-06T06:40:37.891Z,50.50
2018-10-06T06:43:08.150Z,51.73
2018-10-06T06:45:38.389Z,53.50
2018-10-06T06:48:08.899Z,51.77
2018-10-06T06:50:39.289Z,52.57
2018-10-06T06:53:09.555Z,53.93
2018-10-06T06:55:39.544Z,52.37
2018-10-06T06:58:09.809Z,53.00
2018-10-06T07:00:40.134Z,104.60
2018-10-06T07:03:16.742Z,52.63
2018-10-06T07:05:47.263Z,51.93
2018-10-06T07:08:17.442Z,50.67
2018-10-06T07:10:47.571Z,52.17
2018-10-06T07:13:17.631Z,51.87
2018-10-06T07:15:47.816Z,50.57
2018-10-06T07:18:18.368Z,51.10
2018-10-06T07:20:48.652Z,52.37
2018-10-06T07:23:18.798Z,50.30
2018-10-06T07:25:49.169Z,49.37
2018-10-06T07:28:19.197Z,54.70
2018-10-06T07:30:49.367Z,50.43
2018-10-06T07:33:19.611Z,49.63
2018-10-06T07:35:49.845Z,53.13
2018-10-06T07:38:20.247Z,50.37
2018-10-06T07:40:50.654Z,51.03
2018-10-06T07:43:21.183Z,51.27
2018-10-06T07:45:51.362Z,54.10
2018-10-06T07:48:22.157Z,51.47
2018-10-06T07:50:52.763Z,52.00
2018-10-06T07:53:23.054Z,49.97
2018-10-06T07:55:53.198Z,54.90
2018-10-06T07:58:23.933Z,51.73
2018-10-06T08:00:54.132Z,55.10
2018-10-06T08:03:24.209Z,52.43
2018-10-06T08:05:54.434Z,51.23
2018-10-06T08:08:24.645Z,53.60
2018-10-06T08:10:54.796Z,52.30
2018-10-06T08:13:25.077Z,58.03
2018-10-06T08:15:55.203Z,66.93
2018-10-06T08:18:25.244Z,53.73
2018-10-06T08:20:55.435Z,56.40
2018-10-06T08:23:25.978Z,53.37
2018-10-06T08:25:56.205Z,54.20
2018-10-06T08:28:27.033Z,51.60
2018-10-06T08:30:57.226Z,52.07
2018-10-06T08:33:27.326Z,52.60
2018-10-06T08:35:58.612Z,51.37
2018-10-06T08:38:28.710Z,52.07
2018-10-06T08:40:58.940Z,50.00
2018-10-06T08:43:29.395Z,52.57
2018-10-06T08:45:59.418Z,50.67
2018-10-06T08:48:32.263Z,49.40
2018-10-06T08:51:02.385Z,51.73
2018-10-06T08:53:32.507Z,51.27
2018-10-06T08:56:03.193Z,50.50
2018-10-06T08:58:33.207Z,48.97
2018-10-06T09:01:04.030Z,51.23
2018-10-06T09:03:34.139Z,50.47
2018-10-06T09:06:04.658Z,51.07
2018-10-06T09:08:35.910Z,50.70
2018-10-06T09:11:06.158Z,54.67
2018-10-06T09:13:36.021Z,51.17
2018-10-06T09:16:06.242Z,50.30
2018-10-06T09:18:36.052Z,54.07
2018-10-06T09:21:05.838Z,54.63
2018-10-06T09:23:35.910Z,52.40
2018-10-06T09:26:06.207Z,52.20
2018-10-06T09:28:36.332Z,50.27
2018-10-06T09:31:06.831Z,51.77
2018-10-06T09:33:36.679Z,63.80
2018-10-06T09:36:06.878Z,52.87
2018-10-06T09:38:36.944Z,52.47
2018-10-06T09:41:08.397Z,53.97
2018-10-06T09:43:38.589Z,55.67
2018-10-06T09:46:09.358Z,54.10
2018-10-06T09:48:39.904Z,53.87
2018-10-06T09:51:10.347Z,52.17
2018-10-06T09:53:42.203Z,51.57
2018-10-06T09:56:13.009Z,52.93
2018-10-06T09:58:43.082Z,56.93
2018-10-06T10:01:18.476Z,56.07
2018-10-06T10:03:54.533Z,55.83
2018-10-06T10:06:24.689Z,51.83
2018-10-06T10:08:54.609Z,53.60
2018-10-06T10:11:24.876Z,52.97
2018-10-06T10:13:55.115Z,54.97
2018-10-06T10:16:25.473Z,50.70
2018-10-06T10:18:55.563Z,54.23
2018-10-06T10:21:29.129Z,56.80
2018-10-06T10:23:59.571Z,54.10
2018-10-06T10:26:30.867Z,54.87
2018-10-06T10:29:01.244Z,56.57
2018-10-06T10:31:32.309Z,52.10
2018-10-06T10:34:02.616Z,53.60
2018-10-06T10:36:32.959Z,55.47
2018-10-06T10:39:06.147Z,53.97
2018-10-06T10:41:36.507Z,53.73
2018-10-06T10:44:07.812Z,51.63
2018-10-06T10:46:37.835Z,50.83
2018-10-06T10:49:08.062Z,51.23
2018-10-06T10:51:38.293Z,54.30
2018-10-06T10:54:09.181Z,52.73
2018-10-06T10:56:39.465Z,53.57
2018-10-06T10:59:09.507Z,52.07
2018-10-06T11:01:39.798Z,79.43
2018-10-06T11:04:10.504Z,53.07
2018-10-06T11:06:40.951Z,53.33
2018-10-06T11:09:10.924Z,54.37
2018-10-06T11:11:40.838Z,53.70
2018-10-06T11:14:11.122Z,51.43
2018-10-06T11:16:41.822Z,53.17
2018-10-06T11:19:12.437Z,51.43
2018-10-06T11:21:42.782Z,54.63
2018-10-06T11:24:13.337Z,53.97
2018-10-06T11:26:43.449Z,53.57
2018-10-06T11:29:13.835Z,52.43
2018-10-06T11:31:44.288Z,53.53
2018-10-06T11:34:14.512Z,54.30
2018-10-06T11:36:44.587Z,55.40
2018-10-06T11:39:14.796Z,55.87
2018-10-06T11:41:44.765Z,53.83
2018-10-06T11:44:15.006Z,51.43
2018-10-06T11:46:44.956Z,57.87
2018-10-06T11:49:15.492Z,59.30
2018-10-06T11:51:45.914Z,59.43
2018-10-06T11:54:16.037Z,56.23
2018-10-06T11:56:46.072Z,54.30
2018-10-06T11:59:16.172Z,56.10
2018-10-06T12:01:46.339Z,54.67
2018-10-06T12:04:16.709Z,54.83
2018-10-06T12:06:46.591Z,55.47
2018-10-06T12:09:16.845Z,56.17
2018-10-06T12:11:47.235Z,60.17
2018-10-06T12:14:18.691Z,55.07
2018-10-06T12:16:49.054Z,56.17
2018-10-06T12:19:19.050Z,59.87
2018-10-06T12:21:49.567Z,57.10
2018-10-06T12:24:19.599Z,55.30
2018-10-06T12:26:49.998Z,54.07
2018-10-06T12:29:21.079Z,55.37
2018-10-06T12:31:51.362Z,56.60
2018-10-06T12:34:21.578Z,57.13
2018-10-06T12:36:52.330Z,56.80
2018-10-06T12:39:22.315Z,56.53
2018-10-06T12:41:52.372Z,56.33
2018-10-06T12:44:22.625Z,57.63
2018-10-06T12:46:52.963Z,58.63
2018-10-06T12:49:23.020Z,53.90
2018-10-06T12:51:53.237Z,55.03
2018-10-06T12:54:23.335Z,57.43
2018-10-06T12:56:53.328Z,54.60
2018-10-06T12:59:23.669Z,55.30
2018-10-06T13:01:53.857Z,54.67
2018-10-06T13:04:24.019Z,55.23
2018-10-06T13:06:54.109Z,55.37
2018-10-06T13:09:24.542Z,55.73
2018-10-06T13:11:55.096Z,55.17
2018-10-06T13:14:26.240Z,57.37
2018-10-06T13:16:56.640Z,57.33
2018-10-06T13:19:26.646Z,54.73
2018-10-06T13:21:56.966Z,57.37
2018-10-06T13:24:27.126Z,54.33
2018-10-06T13:26:57.416Z,54.63
2018-10-06T13:29:27.678Z,56.33
2018-10-06T13:31:58.218Z,54.53
2018-10-06T13:34:29.559Z,55.03
2018-10-06T13:36:59.720Z,55.43
2018-10-06T13:39:29.971Z,56.03
2018-10-06T13:42:00.159Z,55.53
2018-10-06T13:44:30.872Z,57.93
2018-10-06T13:47:01.215Z,57.07
2018-10-06T13:49:31.584Z,62.30
2018-10-06T13:52:01.518Z,54.93
2018-10-06T13:54:31.800Z,54.90
2018-10-06T13:57:02.067Z,61.03
2018-10-06T13:59:32.436Z,56.63
2018-10-06T14:02:02.457Z,57.53
2018-10-06T14:04:32.855Z,57.87
2018-10-06T14:07:03.142Z,58.67
2018-10-06T14:09:33.118Z,56.83
2018-10-06T14:12:03.487Z,58.47
2018-10-06T14:14:33.622Z,59.07
2018-10-06T14:17:04.181Z,61.77
2018-10-06T14:19:34.315Z,62.70
2018-10-06T14:22:04.546Z,56.83
2018-10-06T14:24:34.903Z,61.73
2018-10-06T14:27:05.000Z,59.80
2018-10-06T14:29:35.462Z,57.50
2018-10-06T14:32:05.367Z,58.97
2018-10-06T14:34:36.029Z,57.80
2018-10-06T14:37:06.463Z,57.67
2018-10-06T14:39:37.010Z,59.90
2018-10-06T14:42:07.412Z,57.63
2018-10-06T14:44:37.783Z,59.63
2018-10-06T14:47:07.996Z,58.83
2018-10-06T14:49:38.172Z,58.80
2018-10-06T14:52:08.133Z,60.27
2018-10-06T14:54:39.387Z,58.87
2018-10-06T14:57:09.861Z,58.93
2018-10-06T14:59:40.159Z,58.30
2018-10-06T15:02:10.233Z,56.23
2018-10-06T15:04:40.438Z,56.03
2018-10-06T15:07:11.107Z,57.03
2018-10-06T15:09:41.294Z,57.00
2018-10-06T15:12:11.499Z,59.33
2018-10-06T15:14:41.726Z,55.13
2018-10-06T15:17:11.964Z,59.77
2018-10-06T15:19:42.187Z,58.77
2018-10-06T15:22:12.460Z,59.17
2018-10-06T15:24:42.640Z,55.57
2018-10-06T15:27:13.857Z,57.70
2018-10-06T15:29:43.902Z,58.70
2018-10-06T15:32:14.184Z,57.20
2018-10-06T15:34:44.657Z,56.87
2018-10-06T15:37:15.163Z,56.77
2018-10-06T15:39:45.289Z,56.93
2018-10-06T15:42:15.484Z,59.67
2018-10-06T15:44:45.670Z,59.13
2018-10-06T15:47:15.954Z,56.43
2018-10-06T15:49:46.163Z,60.30
2018-10-06T15:52:16.266Z,55.57
2018-10-06T15:54:46.685Z,56.43
2018-10-06T15:57:16.964Z,56.83
2018-10-06T15:59:47.065Z,57.80
2018-10-06T16:02:17.055Z,54.67
2018-10-06T16:04:47.191Z,57.90
2018-10-06T16:07:17.418Z,57.23
2018-10-06T16:09:47.484Z,57.00
2018-10-06T16:12:17.658Z,55.73
2018-10-06T16:14:47.976Z,57.63
2018-10-06T16:17:18.865Z,57.83
2018-10-06T16:19:49.727Z,57.00
2018-10-06T16:22:19.943Z,56.43
2018-10-06T16:24:50.044Z,57.73
2018-10-06T16:27:20.346Z,60.03
2018-10-06T16:29:50.700Z,58.60
2018-10-06T16:32:21.251Z,60.23
2018-10-06T16:34:51.328Z,57.87
2018-10-06T16:37:21.467Z,57.87
2018-10-06T16:39:51.588Z,56.90
2018-10-06T16:42:21.528Z,56.23
2018-10-06T16:44:51.622Z,57.17
2018-10-06T16:47:21.711Z,54.93
2018-10-06T16:49:51.765Z,61.20
2018-10-06T16:52:21.830Z,56.50
2018-10-06T16:54:52.534Z,55.50
2018-10-06T16:57:22.808Z,57.67
2018-10-06T16:59:53.007Z,57.23
2018-10-06T17:02:24.432Z,54.80
2018-10-06T17:04:54.884Z,54.07
2018-10-06T17:07:25.059Z,55.50
2018-10-06T17:09:55.395Z,55.07
2018-10-06T17:12:26.132Z,53.10
2018-10-06T17:14:56.417Z,55.23
2018-10-06T17:17:27.139Z,55.77
2018-10-06T17:19:57.450Z,55.37
2018-10-06T17:22:33.350Z,54.87
2018-10-06T17:25:06.411Z,56.13
2018-10-06T17:27:36.442Z,56.73
2018-10-06T17:30:06.617Z,53.20
2018-10-06T17:32:36.553Z,52.23
2018-10-06T17:35:06.832Z,54.10
2018-10-06T17:37:36.889Z,55.07
2018-10-06T17:40:06.987Z,54.70
2018-10-06T17:42:37.124Z,52.70
2018-10-06T17:45:07.482Z,53.30
2018-10-06T17:47:37.606Z,52.90
2018-10-06T17:50:08.014Z,52.93
2018-10-06T17:52:37.893Z,53.60
2018-10-06T17:55:07.696Z,53.63
2018-10-06T17:57:38.276Z,54.77
2018-10-06T18:00:08.455Z,53.27
2018-10-06T18:02:38.974Z,54.50
2018-10-06T18:05:09.455Z,52.00
2018-10-06T18:07:40.111Z,51.90
2018-10-06T18:10:10.384Z,52.73
2018-10-06T18:12:40.223Z,51.50
2018-10-06T18:15:10.278Z,53.53
2018-10-06T18:17:40.592Z,52.53
2018-10-06T18:20:10.935Z,52.37
2018-10-06T18:22:40.944Z,53.27
2018-10-06T18:25:11.151Z,52.40
2018-10-06T18:27:41.826Z,54.10
2018-10-06T18:30:11.872Z,54.47
2018-10-06T18:32:42.274Z,50.43
2018-10-06T18:35:12.641Z,50.90
2018-10-06T18:37:42.940Z,52.10
2018-10-06T18:40:13.052Z,51.57
2018-10-06T18:42:43.069Z,50.67
2018-10-06T18:45:13.066Z,53.97
2018-10-06T18:47:43.156Z,51.43
2018-10-06T18:50:13.404Z,51.63
2018-10-06T18:52:43.710Z,55.20
2018-10-06T18:55:14.011Z,50.60
2018-10-06T18:57:44.231Z,51.20
2018-10-06T19:00:15.115Z,54.23
2018-10-06T19:02:46.365Z,51.70
2018-10-06T19:05:16.478Z,54.13
2018-10-06T19:07:46.561Z,53.33
2018-10-06T19:10:16.967Z,50.30
2018-10-06T19:12:46.896Z,49.90
2018-10-06T19:15:16.910Z,49.60
2018-10-06T19:17:47.140Z,52.10
2018-10-06T19:20:17.329Z,53.03
2018-10-06T19:22:47.855Z,49.33
2018-10-06T19:25:18.411Z,51.00
2018-10-06T19:27:48.615Z,52.30
2018-10-06T19:30:18.779Z,54.43
2018-10-06T19:32:48.988Z,53.13
2018-10-06T19:35:19.381Z,55.03
2018-10-06T19:37:56.024Z,53.60
2018-10-06T19:40:26.351Z,53.67
2018-10-06T19:42:56.610Z,53.40
2018-10-06T19:45:26.978Z,55.63
2018-10-06T19:47:58.000Z,55.97
2018-10-06T19:50:28.210Z,53.30
2018-10-06T19:52:58.086Z,54.40
2018-10-06T19:55:27.991Z,55.60
2018-10-06T19:57:58.341Z,51.87
2018-10-06T20:00:28.600Z,58.57
2018-10-06T20:02:58.762Z,54.57
2018-10-06T20:05:28.929Z,52.33
2018-10-06T20:07:58.835Z,53.73
2018-10-06T20:10:29.075Z,52.27
2018-10-06T20:12:59.137Z,52.13
2018-10-06T20:15:29.630Z,54.13
2018-10-06T20:18:00.430Z,51.30
2018-10-06T20:20:30.859Z,53.07
2018-10-06T20:23:00.979Z,52.93
2018-10-06T20:25:31.017Z,52.87
2018-10-06T20:28:00.949Z,56.40
2018-10-06T20:30:31.093Z,53.17
2018-10-06T20:33:01.273Z,53.93
2018-10-06T20:35:32.281Z,50.77
2018-10-06T20:38:02.621Z,56.03
2018-10-06T20:40:32.756Z,52.27
2018-10-06T20:43:03.051Z,51.70
2018-10-06T20:45:33.098Z,54.00
2018-10-06T20:48:03.034Z,54.83
2018-10-06T20:50:33.552Z,50.07
2018-10-06T20:53:03.487Z,53.43
2018-10-06T20:55:33.983Z,53.43
2018-10-06T20:58:03.992Z,51.97
2018-10-06T21:00:34.457Z,52.03
2018-10-06T21:03:04.703Z,50.40
2018-10-06T21:05:35.382Z,50.40
2018-10-06T21:08:05.576Z,57.40
2018-10-06T21:10:35.904Z,52.27
2018-10-06T21:13:06.036Z,53.63
2018-10-06T21:15:35.952Z,56.30
2018-10-06T21:18:06.661Z,50.80
2018-10-06T21:20:37.154Z,51.13
2018-10-06T21:23:07.456Z,50.80
2018-10-06T21:25:37.737Z,50.13
2018-10-06T21:28:08.248Z,53.57
2018-10-06T21:30:38.440Z,48.20
2018-10-06T21:33:08.975Z,48.30
2018-10-06T21:35:39.221Z,54.90
2018-10-06T21:38:09.445Z,51.67
2018-10-06T21:40:39.517Z,55.40
2018-10-06T21:43:09.483Z,55.87
2018-10-06T21:45:39.651Z,55.60
2018-10-06T21:48:09.575Z,49.70
2018-10-06T21:50:39.689Z,51.20
2018-10-06T21:53:10.209Z,52.20
2018-10-06T21:55:40.370Z,54.07
2018-10-06T21:58:10.579Z,51.17
2018-10-06T22:00:40.704Z,50.63
2018-10-06T22:03:11.295Z,52.03
2018-10-06T22:05:41.270Z,55.03
2018-10-06T22:08:11.865Z,55.40
2018-10-06T22:10:42.179Z,52.50
2018-10-06T22:13:12.384Z,47.73
2018-10-06T22:15:42.825Z,51.60
2018-10-06T22:18:13.055Z,48.37
2018-10-06T22:20:43.373Z,52.47
2018-10-06T22:23:14.442Z,51.93
2018-10-06T22:25:44.519Z,50.67
2018-10-06T22:28:14.846Z,54.87
2018-10-06T22:30:45.060Z,50.97
2018-10-06T22:33:15.313Z,49.23
2018-10-06T22:35:45.358Z,49.83
2018-10-06T22:38:15.836Z,48.07
2018-10-06T22:40:46.007Z,49.07
2018-10-06T22:43:17.142Z,50.73
2018-10-06T22:45:47.313Z,49.80
2018-10-06T22:48:17.666Z,48.13
2018-10-06T22:50:47.863Z,54.30
2018-10-06T22:53:18.228Z,51.13
2018-10-06T22:55:48.514Z,49.10
2018-10-06T22:58:19.351Z,53.93
2018-10-06T23:00:49.959Z,157.40
2018-10-06T23:03:20.166Z,53.83
2018-10-06T23:05:50.424Z,51.70
2018-10-06T23:08:20.865Z,47.87
2018-10-06T23:10:50.926Z,50.83
2018-10-06T23:13:21.204Z,50.00
2018-10-06T23:15:51.707Z,47.03
2018-10-06T23:18:21.946Z,48.40
2018-10-06T23:20:52.248Z,47.87
2018-10-06T23:23:22.460Z,51.33
2018-10-06T23:25:52.733Z,49.37
2018-10-06T23:28:22.909Z,50.90
2018-10-06T23:30:53.620Z,48.83
2018-10-06T23:33:24.067Z,52.03
2018-10-06T23:35:54.018Z,49.70
2018-10-06T23:38:24.139Z,47.87
2018-10-06T23:40:54.226Z,48.63
2018-10-06T23:43:24.483Z,48.47
2018-10-06T23:45:54.725Z,49.77
2018-10-06T23:48:25.264Z,46.57
2018-10-06T23:50:56.184Z,47.33
2018-10-06T23:53:26.309Z,47.83
2018-10-06T23:55:56.608Z,50.00
2018-10-06T23:58:26.829Z,49.20
